Tiempo atmosférico en la estación meteorológica de Baza, Granada (801 m.)



Fecha
DESCASC
Temp. máxima en grados centígrados (hora)
DESCASC
Temp. mínima en grados centígrados (hora)
DESCASC
Temp. media en grados centígrados
DESCASC
Racha de viento máxima en m/sg (hora)
DESCASC
Velocidad máxima media en intervalos de 10 minutos(hora)
DESCASC
Precipitaciones diarias en mm
DESCASC
Precipitaciones de 00:00 a 06:00 en mm
DESCASC
Precipitaciones de 06:00 a 12:00 en mm
DESCASC
Precipitaciones de 12:00 a 18:00 en mm
DESCASC
Precipitaciones de 18:00 a 24:00 en mm
DESCASC
19-05-2019 21.5 (16:50) 7 (06:40) 14.3 11.67 (18:30) 6.94 (18:30) 0 0 0 0 0
18-05-2019 20.3 (16:20) 6.9 (05:50) 13.6 12.78 (16:30) 7.22 (17:10) 0 0 0 0 0
17-05-2019 20.8 (00:00) 11.1 (07:10) 15.9 15 (00:50) 8.89 (02:40) 0 0 0 0 0
16-05-2019 31.7 (16:30) 11.5 (00:00) 21.6 12.78 (15:40) 8.06 (15:20) 0 0 0 0 0
15-05-2019 30.8 (17:30) 7.4 (00:00) 19.1 11.67 (14:30) 7.5 (14:50) 0 0 0 0 0
14-05-2019 28 (17:10) 8.2 (00:00) 18.1 8.61 (12:50) 5.28 (20:30) 0 0 0 0 0
13-05-2019 31 (17:00) 8.9 (00:00) 19.9 12.22 (18:50) 7.22 (18:30) 0 0 0 0 0
12-05-2019 30.3 (17:00) 11.8 (00:00) 21 8.89 (14:00) 5.56 (20:20) 0 0 0 0 0
11-05-2019 30.6 (17:20) 8.9 (00:00) 19.8 10 (20:50) 5.83 (20:50) 0 0 0 0 0
10-05-2019 29 (16:40) 11.4 (00:00) 20.2 13.06 (17:40) 7.5 (17:40) 0 0 0 0 0
09-05-2019 24.2 (17:40) 13.6 (00:00) 18.9 11.67 (16:10) 6.94 (15:30) 0 0 0 0 0
08-05-2019 25.4 (17:30) 12 (00:00) 18.7 13.61 (12:20) 8.61 (12:20) 0 0 0 0 0
07-05-2019 27.9 (17:20) 7.2 (00:00) 17.5 9.17 (16:00) 5.28 (15:30) 0 0 0 0 0
06-05-2019 26.4 (16:50) 11.5 (00:00) 18.9 8.89 (16:00) 5 (18:50) 0 0 0 0 0
05-05-2019 24.5 (17:00) 10.9 (00:00) 17.7 11.39 (17:30) 6.94 (17:30) 0 0 0 0 0
04-05-2019 22.2 (17:10) 9.8 (00:00) 16 12.22 (15:10) 7.78 (16:00) 0.2 0.2 0 0 0
03-05-2019 24.9 (16:00) 5.3 (00:00) 15.1 14.72 (19:30) 10 (19:40) 0.4 0 0 0 0.4
02-05-2019 25.8 (14:50) 7.7 (07:40) 16.7 12.22 (19:20) 7.22 (18:50) 0 0 0 0 0
01-05-2019 27.2 (16:00) 8.4 (00:00) 17.8 10.28 (17:00) 6.39 (14:50) 0 0 0 0 0
30-04-2019 27.4 (17:30) 6 (00:00) 16.7 9.17 (20:10) 5.28 (18:40) 0 0 0 0 0
29-04-2019 25.4 (15:50) 5.4 (00:00) 15.4 8.89 (20:20) 5.83 (18:40) 0 0 0 0 0
28-04-2019 25.2 (15:30) 4.5 (00:00) 14.9 10.28 (13:00) 6.11 (19:30) 0 0 0 0 0
27-04-2019 25.1 (17:10) 2.8 (00:00) 14 8.61 (17:50) 5.28 (19:40) 0 0 0 0 0
26-04-2019 19.2 (16:00) 5.7 (00:00) 12.5 10 (01:00) 5.83 (18:20) 0 0 0 0 0
25-04-2019 17 (17:30) 10.1 (00:00) 13.6 15 (17:20) 8.89 (18:10) 0.2 0 0 0.2 0
24-04-2019 18.6 (17:00) 4.1 (00:00) 11.4 14.17 (13:10) 8.33 (16:20) 0 0 0 0 0
23-04-2019 14.1 (16:50) 7 (00:00) 10.6 14.17 (19:10) 8.89 (19:10) 0.4 0 0 0.4 0

Gráficas

Temp. máximas Temp. mínimas Temp. medias Precipitaciones Rachas de viento máximas Velocidades máximas media en intervalos de 10 minutos

Datos horarios

Fecha y hora oficial Temperatura (ºC) Velocidad del viento (km/h) Dirección del viento Racha (km/h) Dirección de racha Precipitación (mm) Presión (hPa) Tendencia (hPa) Humedad (%)
2019-05-22 23:00:00 17.2 7 Sudeste 20 Sur 0 928.9 2.1 45
2019-05-22 22:00:00 18.9 12 Sur 23 Sudeste 0 928.2 1.7 41
2019-05-22 21:00:00 21.8 13 Sudeste 30 Sudeste 0 927.4 0.8 32
2019-05-22 20:00:00 24.8 19 Sudeste 33 Sudeste 0 926.8 0 29
2019-05-22 19:00:00 26.7 18 Sudeste 38 Sudeste 0 926.5 -0.6 26
2019-05-22 18:00:00 27.5 16 Sudeste 29 Sudeste 0 926.6 -0.8 26
2019-05-22 17:00:00 26.7 7 Sudeste 30 Este 0 926.8 -0.8 24
2019-05-22 16:00:00 27 13 Sudeste 25 Sudeste 0 927.1 -0.9 24
2019-05-22 15:00:00 26.7 8 Sudeste 20 Sudeste 0 927.4 -0.9 22
2019-05-22 14:00:00 26.1 8 Este 19 Norte 0 927.6 -0.8 23
2019-05-22 13:00:00 24.4 6 Noroeste 16 Nordeste 0 928 -0.6 28
2019-05-22 12:00:00 21.4 5 Norte 14 Norte 0 928.3 -0.2 40
2019-05-22 11:00:00 17.4 6 Norte 11 Sudeste 0 928.4 0.1 59
2019-05-22 10:00:00 13 2 Sudoeste 6 Noroeste 0 928.6 0.9 74
2019-05-22 09:00:00 10.5 3 Norte 6 Norte 0 928.5 1 89
2019-05-22 08:00:00 8.1 4 Sur 6 Sur 0 928.3 0.9 93
2019-05-22 07:00:00 7.5 2 Sudeste 5 Sur 0 927.7 0.1 90
2019-05-22 06:00:00 8.5 4 Norte 9 Sur 0 927.5 -0.3 90
2019-05-22 05:00:00 8.6 6 Sudeste 9 Sur 0 927.4 -0.4 90
2019-05-22 04:00:00 9.5 6 Sudeste 8 Sudeste 0 927.6 -0.1 89
2019-05-22 03:00:00 11 4 Este 8 Este 0 927.8 0 89
2019-05-22 02:00:00 12.1 6 Sudeste 15 Sudeste 0 927.8 0.3 90
2019-05-22 01:00:00 12.4 5 Sudeste 10 Sudeste 0 927.7 1.1 86
2019-05-22 00:00:00 13.5 5 Sudeste 12 Este 0 927.8 2.1 81
2019-05-21 23:00:00 14.7 7 Este 15 Sudeste 0 927.5 2.8 69
2019-05-21 22:00:00 16.1 4 Este 24 Sudeste 0 926.6 2.3 66
2019-05-21 21:00:00 18.2 14 Sudeste 32 Sudeste 0.2 925.7 1.4 57
2019-05-21 20:00:00 22.3 17 Sudeste 28 Sudeste 0 924.7 0.7 40
2019-05-21 19:00:00 23.7 13 Sudeste 31 Sudeste 0 924.3 0.5 33
2019-05-21 18:00:00 22.6 16 Sudeste 41 Este 0 924.3 0 34
2019-05-21 17:00:00 25.5 11 Este 27 Este 0 924 -0.8 30
2019-05-21 16:00:00 25.9 12 Oeste 26 Oeste 0 923.8 -1.3 18
2019-05-21 15:00:00 25.2 10 Oeste 22 Noroeste 0 924.3 -1.1 18
2019-05-21 14:00:00 23.6 8 Norte 21 Norte 0 924.8 -0.7 23
2019-05-21 13:00:00 22.6 8 Norte 15 Norte 0 925.1 -0.4 22
2019-05-21 12:00:00 20 6 Norte 16 Norte 0 925.4 0.3 33
2019-05-21 11:00:00 16.7 8 Norte 15 Norte 0 925.5 0.7 43
2019-05-21 10:00:00 13.8 7 Norte 10 Norte 0 925.5 1.3 57
2019-05-21 09:00:00 11.6 4 Norte 6 Norte 0 925.1 1 60
2019-05-21 08:00:00 10 4 Noroeste 11 Sudeste 0 924.8 0.9 64
2019-05-21 07:00:00 9.3 8 Sudeste 12 Sur 0 924.2 0.1 67
2019-05-21 06:00:00 9.5 8 Sudeste 11 Sudeste 0 924.1 -0.1 71
2019-05-21 05:00:00 10.9 8 Sur 11 Sur 0 923.9 -0.5 65
2019-05-21 04:00:00 13.6 3 Sudoeste 13 Noroeste 0 924.1 -0.6 53
2019-05-21 03:00:00 14.6 6 Noroeste 10 Noroeste 0 924.2 -0.3 50
2019-05-21 02:00:00 14.3 3 Este 9 Sudeste 0 924.4 0.2 52
2019-05-21 01:00:00 14.8 7 Sudeste 17 Sudeste 0 924.7 1.3 50
2019-05-21 00:00:00 15.4 11 Sudeste 20 Sudeste 0 924.5 2 49
2019-05-20 23:00:00 16.6 11 Sur 19 Sur 0 924.2 2.2 43
2019-05-20 22:00:00 19.5 4 Oeste 23 Oeste 0 923.4 1.6 30
2019-05-20 21:00:00 21.4 10 Noroeste 28 Oeste 0 922.5 0.7 28
2019-05-20 20:00:00 23.1 17 Oeste 31 Oeste 0 922 0.3 27
2019-05-20 19:00:00 23.6 16 Noroeste 32 Oeste 0 921.8 -0.2 27
2019-05-20 18:00:00 24 18 Noroeste 30 Noroeste 0 921.8 -0.6 26
2019-05-20 17:00:00 23.3 19 Noroeste 40 Oeste 0 921.7 -1.1 24
2019-05-20 16:00:00 23.5 22 Oeste 37 Noroeste 0 922 -1.4 19
2019-05-20 15:00:00 23.8 13 Noroeste 29 Noroeste 0 922.4 -1.3 24
2019-05-20 14:00:00 22.5 10 Norte 27 Noroeste 0 922.8 -1.2 27
2019-05-20 13:00:00 21.5 9 Norte 26 Norte 0 923.4 -0.7 27
2019-05-20 12:00:00 19.2 13 Norte 21 Norte 0 923.7 -0.1 37
2019-05-20 11:00:00 15.9 7 Norte 13 Noroeste 0 924 0.4 48
2019-05-20 10:00:00 13 6 Norte 13 Norte 0 924.1 1.2 52
2019-05-20 09:00:00 10.8 4 Sudeste 9 Sudeste 0 923.8 1.1 60
2019-05-20 08:00:00 6.5 6 Sur 8 Sur 0 923.6 0.8 79
2019-05-20 07:00:00 6.4 5 Sudeste 7 Sudeste 0 922.9 0 77
2019-05-20 06:00:00 8.5 5 Oeste 10 Sur 0 922.7 -0.5 70
2019-05-20 05:00:00 9.4 4 Sur 6 Sur 0 922.8 -0.6 62
2019-05-20 04:00:00 11.1 4 Nordeste 8 Sudeste 0 922.9 -0.9 53
2019-05-20 03:00:00 13.4 3 Sur 14 Oeste 0 923.2 -0.3 43
2019-05-20 02:00:00 14.8 11 Oeste 22 Oeste 0 923.4 0.4 36
2019-05-20 01:00:00 15.2 11 Oeste 17 Oeste 0 923.8 1.6 32
2019-05-20 00:00:00 14.8 9 Oeste 15 Sudoeste 0 923.5 1.5 32
2019-05-19 23:00:00 13.2 5 Sur 16 Oeste 0 923 1.2 42
2019-05-19 22:00:00 16.4 7 Oeste 13 Norte 0 922.2 0.5 29
2019-05-19 21:00:00 18.1 6 Noroeste 22 Norte 0 922 0.4 27
2019-05-19 20:00:00 19 17 Noroeste 34 Noroeste 0 921.8 0.2 24
2019-05-19 19:00:00 20.4 19 Noroeste 42 Noroeste 0 921.7 -0.1 22
2019-05-19 18:00:00 21 20 Noroeste 40 Noroeste 0 921.6 -0.1 19
2019-05-19 17:00:00 21.5 18 Noroeste 37 Noroeste 0 921.6 -0.2 20
2019-05-19 16:00:00 21 20 Oeste 34 Oeste 0 921.8 -0.3 23
2019-05-19 15:00:00 20.3 15 Noroeste 34 Noroeste 0 921.7 -0.6 25
2019-05-19 14:00:00 19.6 16 Oeste 34 Oeste 0 921.8 -0.7 26
2019-05-19 13:00:00 17.9 19 Oeste 33 Noroeste 0 922.1 -0.5 26
2019-05-19 12:00:00 16.6 17 Noroeste 34 Oeste 0 922.3 -0.1 29
2019-05-19 11:00:00 14.9 10 Noroeste 23 Oeste 0 922.5 0.4 32
2019-05-19 10:00:00 13.5 15 Oeste 22 Oeste 0 922.6 0.8 33
2019-05-19 09:00:00 9.6 2 Este 8 Sudeste 0 922.4 0.7 49
2019-05-19 08:00:00 7.8 6 Sudeste 9 Sudeste 0 922.1 0.4 56
2019-05-19 07:00:00 7.4 5 Sur 9 Sur 0 921.8 0.1 52
2019-05-19 06:00:00 7.9 5 Sur 10 Oeste 0 921.7 -0.6 53
2019-05-19 05:00:00 10.9 9 Oeste 12 Oeste 0 921.7 -1.1 34
2019-05-19 04:00:00 10.5 9 Oeste 12 Oeste 0 921.7 -1.4 35
2019-05-19 03:00:00 11.4 6 Oeste 16 Noroeste 0 922.3 -0.7 31
2019-05-19 02:00:00 12.2 8 Oeste 15 Oeste 0 922.8 0 29
2019-05-19 01:00:00 12.7 7 Oeste 12 Oeste 0 923.1 1.1 28
2019-05-19 00:00:00 13.1 8 Oeste 16 Oeste 0 923 1.6 26
2019-05-18 23:00:00 14 8 Oeste 33 Noroeste 0 922.8 2.1 24
2019-05-18 22:00:00 15.2 16 Noroeste 33 Noroeste 0 922 1.4 21
2019-05-18 21:00:00 17 24 Noroeste 39 Noroeste 0 921.4 1 19
2019-05-18 20:00:00 18.7 25 Noroeste 45 Oeste 0 920.7 0.6 15
2019-05-18 19:00:00 19.8 20 Noroeste 43 Oeste 0 920.6 0.4 16
2019-05-18 18:00:00 19.3 24 Noroeste 45 Norte 0 920.4 0.1 20
2019-05-18 17:00:00 19.8 22 Noroeste 46 Noroeste 0 920.1 -0.3 20
2019-05-18 16:00:00 19.4 22 Noroeste 39 Noroeste 0 920.2 -0.6 21
2019-05-18 15:00:00 19.1 23 Noroeste 40 Oeste 0 920.3 -0.3 26
2019-05-18 14:00:00 18.1 19 Oeste 34 Noroeste 0 920.4 -0.3 32
2019-05-18 13:00:00 17.2 21 Noroeste 33 Noroeste 0 920.8 0 33
2019-05-18 12:00:00 16 19 Noroeste 32 Noroeste 0 920.6 -0.3 34
2019-05-18 11:00:00 14.3 13 Noroeste 21 Noroeste 0 920.7 0.2 39
2019-05-18 10:00:00 13.3 12 Oeste 21 Oeste 0 920.8 0.5 40
2019-05-18 09:00:00 12.4 14 Oeste 19 Oeste 0 920.9 0.6 43
2019-05-18 08:00:00 9.6 6 Oeste 13 Oeste 0 920.5 0.1 52
2019-05-18 07:00:00 9.8 10 Oeste 16 Oeste 0 920.3 -0.7 47
2019-05-18 06:00:00 9 10 Oeste 14 Sudoeste 0 920.3 -1.6 51
2019-05-18 05:00:00 7.8 4 Sudeste 8 Sudeste 0 920.4 -1.9 56
2019-05-18 04:00:00 10.9 4 Sudoeste 13 Oeste 0 921 -1.4 44
2019-05-18 03:00:00 10.6 7 Noroeste 17 Oeste 0 921.9 -0.8 43
2019-05-18 02:00:00 11.7 9 Oeste 15 Oeste 0 922.3 0 39
2019-05-18 01:00:00 12.4 12 Oeste 15 Oeste 0 922.4 0.8 37
2019-05-18 00:00:00 13.2 8 Oeste 24 Oeste 0 922.7 1.9 35
2019-05-17 23:00:00 14.5 17 Noroeste 29 Noroeste 0 922.3 1.9 30
2019-05-17 22:00:00 15.5 13 Oeste 32 Noroeste 0 921.6 1.1 27
2019-05-17 21:00:00 17.5 18 Oeste 33 Oeste 0 920.8 -0.1 25
2019-05-17 20:00:00 18.6 20 Oeste 32 Oeste 0 920.4 -0.6 24
2019-05-17 19:00:00 18.5 20 Oeste 33 Oeste 0 920.5 -1 24
2019-05-17 18:00:00 17.4 21 Noroeste 35 Noroeste 0 920.9 -0.6 27
2019-05-17 17:00:00 16.7 23 Noroeste 35 Noroeste 0 921 -0.2 31
2019-05-17 16:00:00 16.1 21 Noroeste 37 Oeste 0 921.5 0.6 32
2019-05-17 15:00:00 15.7 24 Oeste 40 Oeste 0 921.5 0.9 32
2019-05-17 14:00:00 16.1 22 Noroeste 39 Noroeste 0 921.2 0.9 32
2019-05-17 13:00:00 16.7 22 Noroeste 42 Noroeste 0 920.9 0.8 36
2019-05-17 12:00:00 15.2 21 Noroeste 41 Oeste 0 920.6 0.5 41
2019-05-17 11:00:00 14.7 24 Oeste 46 Oeste 0 920.3 0.6 40
2019-05-17 10:00:00 12.9 28 Oeste 44 Oeste 0 920.1 1.5 46
2019-05-17 09:00:00 11.9 24 Oeste 47 Oeste 0 920.1 2.1 51
2019-05-17 08:00:00 11.4 25 Oeste 47 Oeste 0 919.7 2.1 51
2019-05-17 07:00:00 11.3 19 Noroeste 44 Noroeste 0 918.6 0.9 58
2019-05-17 06:00:00 12.3 26 Noroeste 44 Noroeste 0 918 0 56
2019-05-17 05:00:00 14.3 26 Noroeste 44 Oeste 0 917.6 -0.9 54
2019-05-17 04:00:00 15.9 27 Oeste 49 Oeste 0 917.7 -1.3 48
2019-05-17 03:00:00 17.7 27 Oeste 47 Oeste 0 918 -0.9 43
2019-05-17 02:00:00 18.8 23 Oeste 50 Oeste 0 918.5 -0.7 43
2019-05-17 01:00:00 19.9 28 Oeste 54 Oeste 0 919 0.1 37
2019-05-17 00:00:00 20.8 21 Sudoeste 37 Oeste 0 918.9 0.4 24
2019-05-16 23:00:00 21.8 13 Sudoeste 32 Oeste 0 919.2 1 18
2019-05-16 22:00:00 23.4 15 Oeste 37 Oeste 0 918.9 0.6 17
2019-05-16 21:00:00 25.8 18 Oeste 39 Oeste 0 918.5 0 14
2019-05-16 20:00:00 27 23 Oeste 45 Oeste 0 918.2 -0.4 14
2019-05-16 19:00:00 29.4 27 Oeste 46 Oeste 0 918.3 -1 16
2019-05-16 18:00:00 30.6 24 Oeste 45 Oeste 0 918.5 -1.3 11
2019-05-16 17:00:00 31.3 25 Oeste 44 Oeste 0 918.6 -1.8 12
2019-05-16 16:00:00 31.4 24 Oeste 46 Oeste 0 919.3 -1.7 11
2019-05-16 15:00:00 31.2 25 Oeste 40 Oeste 0 919.8 -2 10
2019-05-16 14:00:00 30.1 17 Sudeste 26 Sudeste 0 920.4 -1.8 26
2019-05-16 13:00:00 28 6 Oeste 18 Sudeste 0 921 -1.6 25
2019-05-16 12:00:00 24.2 9 Sudeste 19 Sudeste 0 921.8 -1 40
2019-05-16 11:00:00 19.9 12 Sudeste 18 Sudeste 0 922.2 -0.6 55
2019-05-16 10:00:00 16.4 8 Sudeste 15 Sudeste 0 922.6 0 72
2019-05-16 09:00:00 13.7 9 Sudeste 20 Sudeste 0 922.8 0.4 85
2019-05-16 08:00:00 12 10 Sudeste 19 Sudeste 0 922.8 0.5 91
2019-05-16 07:00:00 11.5 9 Sudeste 15 Sudeste 0 922.6 0.2 87
2019-05-16 06:00:00 12.7 2 Nordeste 15 Sudeste 0 922.4 -0.4 83
2019-05-16 05:00:00 13.8 9 Sudeste 16 Sudeste 0 922.3 -0.8 80
2019-05-16 04:00:00 14.5 10 Sudeste 17 Sudeste 0 922.4 -0.9 75
2019-05-16 03:00:00 15.7 13 Sudeste 24 Sudeste 0 922.8 -0.6 67
2019-05-16 02:00:00 15.8 12 Sudeste 19 Sudeste 0 923.1 0 49
2019-05-16 01:00:00 15.9 7 Sudeste 10 Este 0 923.3 0.6 39
2019-05-16 00:00:00 17.4 7 Sudeste 10 Sudeste 0 923.4 1 36
2019-05-15 23:00:00 21.1 9 Sudeste 12 Sudoeste 0 923.1 1 30
2019-05-15 22:00:00 24.4 8 Oeste 13 Oeste 0 922.7 0.7 22
2019-05-15 21:00:00 26.9 10 Oeste 27 Oeste 0 922.4 0.4 17
2019-05-15 20:00:00 29.6 18 Noroeste 31 Oeste 0 922.1 -0.2 14
2019-05-15 19:00:00 29.7 21 Noroeste 34 Noroeste 0 922 -0.9 12
2019-05-15 18:00:00 30.2 22 Noroeste 38 Oeste 0 922 -1.2 10
2019-05-15 17:00:00 30.3 23 Oeste 37 Noroeste 0 922.3 -1.3 10
2019-05-15 16:00:00 29.9 24 Oeste 41 Noroeste 0 922.9 -1 14
2019-05-15 15:00:00 29.1 24 Oeste 42 Noroeste 0 923.2 -1 15
2019-05-15 14:00:00 28.1 25 Oeste 36 Noroeste 0 923.6 -0.9 18
2019-05-15 13:00:00 27.3 20 Oeste 33 Oeste 0 923.9 -1 19
2019-05-15 12:00:00 25.1 18 Oeste 28 Oeste 0 924.2 -0.8 25
2019-05-15 11:00:00 18.2 4 Noroeste 11 Norte 0 924.5 -0.4 45
2019-05-15 10:00:00 15 5 Noroeste 8 Noroeste 0 924.9 0.3 56
2019-05-15 09:00:00 10.7 0 Calma 5 Sur 0 925 0.2 68
2019-05-15 08:00:00 7.7 3 Sur 4 Sudeste 0 924.9 0 86
2019-05-15 07:00:00 7.5 5 Sur 7 Sudeste 0 924.6 -0.5 84
2019-05-15 06:00:00 8.1 3 Sur 9 Sudeste 0 924.8 -0.8 80
2019-05-15 05:00:00 8.4 6 Sudeste 8 Sudeste 0 924.9 -1.1 74
2019-05-15 04:00:00 9.3 5 Sudeste 11 Sudeste 0 925.1 -1.3 70
2019-05-15 03:00:00 10.4 7 Sudeste 10 Sudeste 0 925.6 -0.8 67
2019-05-15 02:00:00 11.7 5 Sur 9 Sudeste 0 926 -0.2 60
2019-05-15 01:00:00 13.3 4 Este 14 Sur 0 926.4 0.4 52
2019-05-15 00:00:00 14.8 3 Sur 18 Sudeste 0 926.4 0.6 48
2019-05-14 23:00:00 16 10 Sudeste 28 Sudeste 0 926.2 0.6 44
2019-05-14 22:00:00 17.5 16 Sudeste 30 Sudeste 0 926 0.1 40
2019-05-14 21:00:00 20.5 16 Sudeste 30 Sudeste 0 925.8 -0.2 33
2019-05-14 20:00:00 24 15 Sudeste 29 Sudeste 0 925.6 -0.7 27
2019-05-14 19:00:00 25.8 15 Sudeste 27 Sudeste 0 925.9 -1.1 23
2019-05-14 18:00:00 26.8 15 Sudeste 27 Sudeste 0 926 -1.6 21
2019-05-14 17:00:00 27.6 10 Sudeste 27 Este 0 926.3 -1.7 19
2019-05-14 16:00:00 26.8 13 Sur 28 Sudeste 0 927 -1.7 20
2019-05-14 15:00:00 26.2 13 Sudeste 27 Sur 0 927.6 -1.5 20
2019-05-14 14:00:00 24.9 18 Sudeste 30 Sudeste 0 928 -1.5 22
2019-05-14 13:00:00 22.7 17 Sudeste 31 Sudeste 0 928.7 -1.1 25
2019-05-14 12:00:00 20.3 16 Sur 28 Sudeste 0 929.1 -0.8 27
2019-05-14 11:00:00 16.6 8 Sudeste 17 Sur 0 929.5 -0.3 45
2019-05-14 10:00:00 13.7 8 Sudeste 23 Sudeste 0 929.8 0.2 56
2019-05-14 09:00:00 11.7 13 Sudeste 22 Sudeste 0 929.9 0.5 68
2019-05-14 08:00:00 8.8 7 Sudeste 13 Sudeste 0 929.8 0.2 80
2019-05-14 07:00:00 8.6 7 Sudeste 13 Sudeste 0 929.6 -0.1 84
2019-05-14 06:00:00 8.8 9 Sudeste 13 Sudeste 0 929.4 -0.6 92
2019-05-14 05:00:00 8.9 8 Sudeste 10 Sudeste 0 929.6 -0.9 91
2019-05-14 04:00:00 10.1 5 Sudeste 13 Sudeste 0 929.7 -0.9 83
2019-05-14 03:00:00 11.5 8 Sudeste 17 Sur 0 930 -0.3 78
2019-05-14 02:00:00 12.2 10 Sur 18 Sudeste 0 930.5 0.6 78
2019-05-14 01:00:00 12.8 10 Sudeste 23 Sudeste 0 930.6 1.5 76
2019-05-14 00:00:00 13.8 15 Sudeste 26 Sudeste 0 930.3 2.1 71
2019-05-13 23:00:00 14.7 15 Sudeste 27 Sudeste 0 929.9 2.7 65
2019-05-13 22:00:00 16 14 Sur 27 Sur 0 929.1 2.8 61
2019-05-13 21:00:00 18.5 19 Sudeste 37 Sudeste 0 928.2 2.6 53
2019-05-13 20:00:00 21.2 23 Sudeste 40 Sudeste 0 927.2 1.5 46
2019-05-13 19:00:00 24.4 24 Sudeste 44 Sudeste 0 926.3 0.4 38
2019-05-13 18:00:00 27.8 22 Sudeste 36 Sudeste 0 925.6 -0.9 28
2019-05-13 17:00:00 30.8 12 Sur 39 Oeste 0 925.7 -1.5 20
2019-05-13 16:00:00 30.2 18 Oeste 33 Oeste 0 925.9 -2.2 10
2019-05-13 15:00:00 29.3 16 Oeste 29 Noroeste 0 926.5 -2.3 11
2019-05-13 14:00:00 28.1 17 Oeste 28 Noroeste 0 927.2 -2.1 12
2019-05-13 13:00:00 25.8 10 Noroeste 20 Oeste 0 928.1 -1.6 26
2019-05-13 12:00:00 22.5 4 Sudoeste 19 Sudeste 0 928.8 -1 33
2019-05-13 11:00:00 18.9 12 Sudeste 27 Sudeste 0 929.3 -0.1 41
2019-05-13 10:00:00 15.6 17 Sudeste 29 Sudeste 0 929.7 0.4 48
2019-05-13 09:00:00 13.2 14 Sudeste 24 Sudeste 0 929.8 0.7 66
2019-05-13 08:00:00 9 3 Sudeste 6 Este 0 929.4 -0.1 86
2019-05-13 07:00:00 9.1 0 Calma 9 Sudeste 0 929.3 -0.7 84
2019-05-13 06:00:00 9.1 7 Sudeste 9 Sur 0 929.1 -0.9 85
2019-05-13 05:00:00 9.9 5 Sudeste 7 Oeste 0 929.5 -0.8 78
2019-05-13 04:00:00 10.8 5 Este 8 Sudeste 0 930 -0.8 74
2019-05-13 03:00:00 11.8 6 Sudeste 10 Sudeste 0 930 -0.7 71
2019-05-13 02:00:00 12.8 6 Sudeste 9 Sudeste 0 930.3 -0.1 76
2019-05-13 01:00:00 14 5 Sudeste 8 Sudeste 0 930.8 0.9 69
2019-05-13 00:00:00 15.4 5 Sur 17 Sudeste 0 930.7 1 65
2019-05-12 23:00:00 16.3 10 Sudeste 21 Sudeste 0 930.4 1.1 60
2019-05-12 22:00:00 17.9 11 Sudeste 26 Sudeste 0 929.9 0.6 54
2019-05-12 21:00:00 21.1 17 Sudeste 28 Sudeste 0 929.7 0.2 44
2019-05-12 20:00:00 26.4 16 Sudeste 31 Sudeste 0 929.3 -0.6 30
2019-05-12 19:00:00 29.8 12 Oeste 26 Oeste 0 929.3 -1.5 14
2019-05-12 18:00:00 29.5 10 Noroeste 25 Noroeste 0 929.5 -2 18
2019-05-12 17:00:00 29.9 8 Sudeste 24 Sudeste 0 929.9 -2.4 21
2019-05-12 16:00:00 28.9 8 Sur 19 Sur 0 930.8 -2.1 23
2019-05-12 15:00:00 27.5 11 Sur 21 Sur 0 931.5 -1.7 31
2019-05-12 14:00:00 25.8 13 Sudeste 32 Sudeste 0 932.3 -1.1 35
2019-05-12 13:00:00 24.2 13 Sudeste 26 Sudeste 0 932.9 -0.6 37
2019-05-12 12:00:00 22.9 15 Sudeste 28 Sudeste 0 933.2 -0.5 37
2019-05-12 11:00:00 20 10 Sudeste 27 Sudeste 0 933.4 -0.2 44
2019-05-12 10:00:00 16.3 4 Nordeste 11 Nordeste 0 933.5 0.2 63
2019-05-12 09:00:00 14.5 6 Este 14 Sudeste 0 933.7 0.5 69
2019-05-12 08:00:00 11.9 8 Sudeste 13 Sudeste 0 933.6 0.7 80
2019-05-12 07:00:00 13 9 Sudeste 14 Sudeste 0 933.3 0.8 73
2019-05-12 06:00:00 13 9 Sur 16 Sudeste 0 933.2 0.7 87
2019-05-12 05:00:00 14.2 10 Sudeste 19 Sur 0 932.9 0.4 83
2019-05-12 04:00:00 14.7 11 Sudeste 21 Sudeste 0 932.5 0.5 82
2019-05-12 03:00:00 15.1 7 Sur 15 Sudeste 0 932.5 0.5 77
2019-05-12 02:00:00 15.6 10 Sudeste 26 Sudeste 0 932.5 0.9 74
2019-05-12 01:00:00 16.6 16 Sudeste 24 Sudeste 0 932 1.7 67
2019-05-12 00:00:00 17.2 13 Sudeste 21 Sudeste 0 932 2.4 64
2019-05-11 23:00:00 18.2 10 Sudeste 26 Sudeste 0 931.6 3 61
2019-05-11 22:00:00 19.9 18 Sur 32 Sudeste 0 930.3 2 51
2019-05-11 21:00:00 22.5 19 Sudeste 36 Sudeste 0 929.6 1.3 42
2019-05-11 20:00:00 28.8 9 Sur 26 Oeste 0 928.6 0.2 27
2019-05-11 19:00:00 29.7 16 Oeste 27 Oeste 0 928.3 -0.3 17
2019-05-11 18:00:00 30.1 18 Oeste 30 Noroeste 0 928.3 -0.7 13
2019-05-11 17:00:00 30.5 16 Oeste 31 Noroeste 0 928.4 -0.9 11
2019-05-11 16:00:00 29.4 16 Noroeste 27 Noroeste 0 928.6 -1 14
2019-05-11 15:00:00 28.8 15 Oeste 30 Noroeste 0 929 -1 12
2019-05-11 14:00:00 27.3 10 Noroeste 18 Oeste 0 929.3 -1 19
2019-05-11 13:00:00 25.3 9 Noroeste 21 Noroeste 0 929.6 -0.5 27
2019-05-11 12:00:00 22.7 5 Nordeste 12 Nordeste 0 930 0.4 42
2019-05-11 11:00:00 18.3 5 Norte 16 Norte 0 930.3 0.7 52
2019-05-11 10:00:00 15.8 12 Norte 17 Norte 0 930.1 1.1 59
2019-05-11 09:00:00 12 3 Sudeste 6 Sur 0 929.6 1.1 72
2019-05-11 08:00:00 8.9 6 Sudeste 8 Sudeste 0 929.6 1.1 84
2019-05-11 07:00:00 9.4 5 Sudeste 7 Sudeste 0 929 0.5 78
2019-05-11 06:00:00 10.4 3 Sudoeste 10 Sudeste 0 928.5 0.1 74
2019-05-11 05:00:00 11 6 Sudeste 10 Noroeste 0 928.5 0.1 72
2019-05-11 04:00:00 11.6 3 Norte 8 Noroeste 0 928.5 0.1 68
2019-05-11 03:00:00 12.8 4 Este 9 Sudeste 0 928.4 -0.2 64
2019-05-11 02:00:00 13.7 4 Este 9 Sudeste 0 928.4 0.3 62
2019-05-11 01:00:00 15.8 5 Sur 9 Sudeste 0 928.4 0.9 55
2019-05-11 00:00:00 19.6 6 Sudoeste 14 Oeste 0 928.6 2.2 39
2019-05-10 23:00:00 20.8 8 Oeste 12 Oeste 0 928.1 2.4 39
2019-05-10 22:00:00 22.4 9 Oeste 19 Oeste 0 927.5 2 35
2019-05-10 21:00:00 25.3 12 Oeste 25 Oeste 0 926.4 1 29
2019-05-10 20:00:00 26.8 17 Oeste 30 Noroeste 0 925.7 0.4 30
2019-05-10 19:00:00 27 19 Noroeste 35 Noroeste 0 925.5 -0.1 33
2019-05-10 18:00:00 27.5 24 Noroeste 47 Oeste 0 925.4 -0.5 32
2019-05-10 17:00:00 28.4 22 Noroeste 37 Noroeste 0 925.3 -1.1 28
2019-05-10 16:00:00 28.2 21 Oeste 36 Noroeste 0 925.6 -1.3 29
2019-05-10 15:00:00 27.3 19 Noroeste 32 Noroeste 0 925.9 -1.1 31
2019-05-10 14:00:00 26 16 Noroeste 25 Noroeste 0 926.4 -0.8 30
2019-05-10 13:00:00 24.5 14 Noroeste 22 Oeste 0 926.9 -0.3 36
2019-05-10 12:00:00 22 9 Norte 19 Norte 0 927 0 55
2019-05-10 11:00:00 18.7 6 Noroeste 16 Noroeste 0 927.2 0.5 68
2019-05-10 10:00:00 16 4 Noroeste 11 Noroeste 0 927.2 0.7 79
2019-05-10 09:00:00 13.7 2 Nordeste 7 Sur 0 927 0.6 87
2019-05-10 08:00:00 12.3 8 Sur 14 Sur 0 926.7 0.2 88
2019-05-10 07:00:00 12 8 Sudeste 14 Sudeste 0 926.5 0 85
2019-05-10 06:00:00 14.3 9 Oeste 15 Oeste 0 926.4 -0.4 81
2019-05-10 05:00:00 15.2 6 Oeste 20 Oeste 0 926.5 -0.5 77
2019-05-10 04:00:00 16.1 15 Oeste 24 Sudoeste 0 926.5 -0.6 72
2019-05-10 03:00:00 16.5 14 Sudoeste 22 Sudoeste 0 926.8 -0.2 69
2019-05-10 02:00:00 16.7 13 Oeste 21 Oeste 0 927 0.1 68
2019-05-10 01:00:00 17.4 11 Oeste 19 Oeste 0 927.1 0.6 64
2019-05-10 00:00:00 17.5 9 Oeste 14 Oeste 0 927 1.1 63
2019-05-09 23:00:00 18.2 9 Oeste 15 Oeste 0 926.9 1.5 60
2019-05-09 22:00:00 19.3 11 Oeste 21 Oeste 0 926.5 1 55
2019-05-09 21:00:00 20.8 13 Oeste 30 Noroeste 0 925.9 0.5 49
2019-05-09 20:00:00 22.6 17 Noroeste 32 Oeste 0 925.4 -0.2 45
2019-05-09 19:00:00 23.5 16 Noroeste 36 Noroeste 0 925.5 -0.6 43
2019-05-09 18:00:00 23.5 22 Noroeste 38 Noroeste 0 925.4 -0.9 44
2019-05-09 17:00:00 23.6 23 Noroeste 42 Noroeste 0 925.6 -1.1 44
2019-05-09 16:00:00 23.8 21 Noroeste 40 Noroeste 0 926.1 -1 43
2019-05-09 15:00:00 23.1 23 Oeste 39 Noroeste 0 926.3 -0.6 45
2019-05-09 14:00:00 22.8 19 Noroeste 34 Noroeste 0 926.7 0 46
2019-05-09 13:00:00 21.5 16 Oeste 35 Oeste 0 927.1 0.5 50
2019-05-09 12:00:00 20.2 22 Noroeste 36 Oeste 0 926.9 0.2 51
2019-05-09 11:00:00 19.4 21 Noroeste 31 Noroeste 0 926.7 0.4 56
2019-05-09 10:00:00 17.4 12 Noroeste 18 Noroeste 0 926.6 0.5 68
2019-05-09 09:00:00 15.1 9 Norte 16 Norte 0 926.7 0.6 74
2019-05-09 08:00:00 14.8 9 Norte 19 Norte 0 926.3 0 74
2019-05-09 07:00:00 13.6 5 Norte 12 Norte 0 926.1 -0.3 79
2019-05-09 06:00:00 14.2 7 Norte 18 Noroeste 0 926.1 -0.3 75
2019-05-09 05:00:00 14.9 9 Noroeste 15 Noroeste 0 926.3 -0.4 72
2019-05-09 04:00:00 15.5 8 Norte 19 Oeste 0 926.4 0.2 68
2019-05-09 03:00:00 16.2 10 Oeste 19 Oeste 0 926.4 0.1 64
2019-05-09 02:00:00 16.5 9 Noroeste 22 Noroeste 0 926.7 0.4 62
2019-05-09 01:00:00 17.3 9 Oeste 30 Sudoeste 0 926.2 0.2 57
2019-05-09 00:00:00 17.7 18 Oeste 30 Oeste 0 926.3 0.8 55
2019-05-08 23:00:00 17.9 10 Oeste 32 Oeste 0 926.3 1.4 56
2019-05-08 22:00:00 18.8 16 Oeste 32 Noroeste 0 926 1.4 53
2019-05-08 21:00:00 19.7 13 Noroeste 25 Noroeste 0 925.5 0.8 50
2019-05-08 20:00:00 21.7 15 Noroeste 31 Noroeste 0 924.9 0.2 41
2019-05-08 19:00:00 23.4 18 Noroeste 38 Noroeste 0 924.6 -0.6 36
2019-05-08 18:00:00 24.1 21 Noroeste 40 Oeste 0 924.7 -0.8 34
2019-05-08 17:00:00 25 21 Oeste 41 Noroeste 0 924.7 -1.1 33
2019-05-08 16:00:00 23.9 19 Noroeste 35 Noroeste 0 925.2 -1 38
2019-05-08 15:00:00 23.7 21 Noroeste 48 Oeste 0 925.5 -0.9 37
2019-05-08 14:00:00 24.5 21 Oeste 44 Oeste 0 925.8 -0.7 30
2019-05-08 13:00:00 23.1 26 Oeste 49 Oeste 0 926.2 -0.5 35
2019-05-08 12:00:00 21.7 23 Oeste 39 Oeste 0 926.4 -0.4 39
2019-05-08 11:00:00 18.5 15 Noroeste 26 Noroeste 0 926.5 -0.1 56
2019-05-08 10:00:00 16.2 10 Oeste 19 Noroeste 0 926.7 0.5 64
2019-05-08 09:00:00 14.4 6 Noroeste 13 Oeste 0 926.8 0.7 69
2019-05-08 08:00:00 12.7 8 Noroeste 12 Noroeste 0 926.6 0.6 72
2019-05-08 07:00:00 12.6 3 Norte 9 Noroeste 0 926.2 -0.1 65
2019-05-08 06:00:00 14 7 Oeste 13 Noroeste 0 926.1 -0.7 58
2019-05-08 05:00:00 13.8 2 Sudeste 10 Sudoeste 0 926 -1.2 58
2019-05-08 04:00:00 15.7 9 Oeste 20 Oeste 0 926.3 -1.1 50
2019-05-08 03:00:00 16.6 11 Oeste 22 Oeste 0 926.8 -1 43
2019-05-08 02:00:00 14 4 Sudoeste 8 Sudoeste 0 927.2 -0.1 56
2019-05-08 01:00:00 15.1 5 Sur 9 Sudoeste 0 927.4 0.6 52
2019-05-08 00:00:00 17 6 Sudoeste 12 Sudoeste 0 927.8 1.5 44
2019-05-07 23:00:00 17.6 7 Sudoeste 12 Sudoeste 0 927.3 1.4 47
2019-05-07 22:00:00 20.6 7 Sudoeste 15 Oeste 0 926.8 1 35
2019-05-07 21:00:00 22.9 10 Oeste 23 Oeste 0 926.3 0.8 31
2019-05-07 20:00:00 25.2 17 Oeste 32 Oeste 0 925.9 -0.1 28
2019-05-07 19:00:00 26.6 17 Noroeste 26 Oeste 0 925.8 -0.8 25
2019-05-07 18:00:00 27.6 15 Oeste 28 Noroeste 0 925.5 -1.8 21
2019-05-07 17:00:00 27.7 13 Noroeste 27 Noroeste 0 926 -2 21
2019-05-07 16:00:00 27.1 18 Oeste 33 Noroeste 0 926.6 -1.8 22
2019-05-07 15:00:00 25.8 15 Oeste 30 Noroeste 0 927.3 -1.8 22
2019-05-07 14:00:00 24.1 13 Noroeste 24 Noroeste 0 928 -1.4 26
2019-05-07 13:00:00 22.7 11 Noroeste 26 Oeste 0 928.4 -1 29
2019-05-07 12:00:00 19.5 5 Norte 12 Norte 0 929.1 -0.4 45
2019-05-07 11:00:00 15.8 5 Norte 10 Norte 0 929.4 0.1 58
2019-05-07 10:00:00 12.9 3 Noroeste 7 Oeste 0 929.4 0.5 67
2019-05-07 09:00:00 10.2 4 Oeste 8 Noroeste 0 929.5 0.5 71
2019-05-07 08:00:00 7.5 3 Sudeste 11 Sudeste 0 929.3 0 66
2019-05-07 07:00:00 7.5 8 Sudeste 11 Sudeste 0 928.9 -0.3 67
2019-05-07 06:00:00 8.2 5 Sur 13 Sudeste 0 929 -0.3 66
2019-05-07 05:00:00 8.6 8 Sudeste 10 Sudeste 0 929.3 -0.6 69
2019-05-07 04:00:00 10.2 7 Sudeste 15 Sudeste 0 929.2 -0.6 62
2019-05-07 03:00:00 11.1 8 Sur 13 Sudeste 0 929.3 -0.5 69
2019-05-07 02:00:00 13.5 5 Oeste 12 Oeste 0 929.9 0.2 67
2019-05-07 01:00:00 13.1 7 Sur 9 Sur 0 929.8 0.7 70
2019-05-07 00:00:00 15.6 6 Sudeste 9 Oeste 0 929.8 1.5 60
2019-05-06 23:00:00 18.2 6 Oeste 13 Oeste 0 929.7 2.2 49
2019-05-06 22:00:00 19.6 9 Oeste 17 Oeste 0 929.1 1.9 43
2019-05-06 21:00:00 21.1 15 Oeste 27 Oeste 0 928.3 1.2 34
2019-05-06 20:00:00 23.6 15 Oeste 29 Noroeste 0 927.5 0.4 29
2019-05-06 19:00:00 24.6 16 Noroeste 28 Oeste 0 927.2 -0.3 32
2019-05-06 18:00:00 25.6 14 Noroeste 32 Oeste 0 927.1 -0.8 31
2019-05-06 17:00:00 26 15 Noroeste 29 Noroeste 0 927.1 -1.4 27
2019-05-06 16:00:00 25.3 18 Noroeste 32 Noroeste 0 927.5 -1.6 30
2019-05-06 15:00:00 24.9 17 Noroeste 32 Oeste 0 927.9 -1.5 30
2019-05-06 14:00:00 23.6 16 Noroeste 29 Noroeste 0 928.5 -0.8 29
2019-05-06 13:00:00 22.3 13 Noroeste 23 Oeste 0 929.1 -0.2 38
2019-05-06 12:00:00 20.9 13 Oeste 22 Oeste 0 929.4 0.4 44
2019-05-06 11:00:00 18.7 12 Noroeste 21 Oeste 0 929.3 0.6 51
2019-05-06 10:00:00 16.9 13 Oeste 21 Oeste 0 929.3 1.3 57
2019-05-06 09:00:00 14.3 4 Oeste 9 Oeste 0 929 1 66
2019-05-06 08:00:00 12.9 6 Oeste 14 Oeste 0 928.7 0.9 71
2019-05-06 07:00:00 11.9 2 Oeste 8 Oeste 0 928 0.3 75
2019-05-06 06:00:00 11.6 3 Nordeste 7 Sudeste 0 928 0.3 73
2019-05-06 05:00:00 13.4 5 Norte 16 Este 0 927.8 -0.1 65
2019-05-06 04:00:00 13.5 7 Norte 12 Nordeste 0 927.7 -0.2 63
2019-05-06 03:00:00 13.9 4 Norte 11 Norte 0 927.7 -0.1 61
2019-05-06 02:00:00 14.7 5 Nordeste 17 Norte 0 927.9 0.5 56
2019-05-06 01:00:00 13.3 3 Sudeste 10 Nordeste 0 927.9 1.2 58
2019-05-06 00:00:00 14.8 5 Sur 11 Oeste 0 927.8 1.6 52
2019-05-05 23:00:00 16.6 3 Sudoeste 16 Oeste 0 927.4 1.5 45
2019-05-05 22:00:00 18.5 11 Oeste 17 Oeste 0 926.7 0.9 39
2019-05-05 21:00:00 20.9 12 Noroeste 29 Noroeste 0 926.2 0.4 32
2019-05-05 20:00:00 22.7 14 Noroeste 33 Noroeste 0 925.9 0.1 29
2019-05-05 19:00:00 23 20 Noroeste 35 Noroeste 0 925.8 -0.5 26
2019-05-05 18:00:00 24.1 18 Noroeste 41 Oeste 0 925.8 -0.6 25
2019-05-05 17:00:00 24 24 Oeste 34 Oeste 0 925.8 -0.8 28
2019-05-05 16:00:00 24 18 Noroeste 32 Oeste 0 926.3 -0.5 31
2019-05-05 15:00:00 23.8 20 Noroeste 36 Noroeste 0 926.4 -0.3 31
2019-05-05 14:00:00 22.7 18 Oeste 29 Oeste 0 926.6 0 31
2019-05-05 13:00:00 21.5 16 Oeste 27 Oeste 0 926.8 0.5 43
2019-05-05 12:00:00 19 19 Noroeste 27 Noroeste 0 926.7 0.6 59
2019-05-05 11:00:00 16.5 15 Oeste 22 Oeste 0 926.6 1.1 69
2019-05-05 10:00:00 14.5 9 Noroeste 15 Noroeste 0 926.3 1.5 80
2019-05-05 09:00:00 12.4 3 Norte 10 Sur 0 926.1 1.6 85
2019-05-05 08:00:00 11 6 Sur 25 Oeste 0 925.5 0.9 84
2019-05-05 07:00:00 12.3 18 Oeste 26 Oeste 0 924.8 0.1 77
2019-05-05 06:00:00 12.8 13 Oeste 19 Oeste 0 924.5 -0.4 72
2019-05-05 05:00:00 11.3 5 Sur 16 Sudoeste 0 924.6 -0.5 76
2019-05-05 04:00:00 13.3 10 Oeste 19 Oeste 0 924.7 -0.3 67
2019-05-05 03:00:00 13.9 11 Oeste 19 Oeste 0 924.9 0.2 63
2019-05-05 02:00:00 14.3 11 Oeste 19 Oeste 0 925.1 0.4 59
2019-05-05 01:00:00 14.6 11 Oeste 18 Oeste 0 925 0.9 52
2019-05-05 00:00:00 15.2 13 Oeste 17 Oeste 0 924.7 1.1 44
2019-05-04 23:00:00 16.2 9 Sudoeste 13 Sudoeste 0 924.7 1.5 38
2019-05-04 22:00:00 17.6 8 Oeste 31 Noroeste 0 924.1 0.9 33
2019-05-04 21:00:00 19.1 18 Noroeste 33 Noroeste 0 923.6 0.6 28
2019-05-04 20:00:00 20.4 22 Oeste 37 Oeste 0 923.2 0.2 27
2019-05-04 19:00:00 21.3 20 Oeste 37 Oeste 0 923.2 0.2 25
2019-05-04 18:00:00 21.6 23 Oeste 40 Oeste 0 923 0 24
2019-05-04 17:00:00 22.1 24 Oeste 43 Oeste 0 923 -0.3 20
2019-05-04 16:00:00 21.3 28 Oeste 44 Oeste 0 923 -0.7 22
2019-05-04 15:00:00 21.1 26 Oeste 41 Oeste 0 923 -0.8 28
2019-05-04 14:00:00 20.1 23 Oeste 37 Oeste 0 923.3 -0.3 26
2019-05-04 13:00:00 19.1 20 Oeste 30 Oeste 0 923.7 0.4 37
2019-05-04 12:00:00 17.5 17 Oeste 27 Oeste 0 923.8 0.4 45
2019-05-04 11:00:00 14.9 8 Norte 21 Oeste 0 923.6 0.8 75
2019-05-04 10:00:00 12.9 4 Noroeste 13 Oeste 0 923.3 1 89
2019-05-04 09:00:00 11.4 5 Noroeste 14 Norte 0 923.4 1.3 98
2019-05-04 08:00:00 10.4 4 Norte 8 Norte 0 922.8 0.7 98
2019-05-04 07:00:00 9.8 2 Oeste 5 Este 0 922.3 0.1 96
2019-05-04 06:00:00 10.4 3 Sudeste 9 Sudeste 0 922.1 -0.3 94
2019-05-04 05:00:00 11.1 6 Sur 13 Sur 0 922.1 -0.8 94
2019-05-04 04:00:00 11 6 Sudeste 18 Sudeste 0 922.2 -0.5 94
2019-05-04 03:00:00 10.7 9 Sudeste 19 Sudeste 0 922.4 0.2 94
2019-05-04 02:00:00 11.4 11 Sudeste 17 Sudeste 0.2 922.9 1.8 94
2019-05-04 01:00:00 11.7 9 Sudeste 15 Sudeste 0 922.7 2.8 93
2019-05-04 00:00:00 12 6 Sudeste 17 Sudeste 0 922.2 2.1 91
2019-05-03 23:00:00 12.6 5 Este 21 Este 0 921.1 2 89
2019-05-03 22:00:00 13.4 9 Sudeste 25 Sudeste 0.4 919.9 2.2 89
2019-05-03 21:00:00 14.2 17 Sudeste 36 Noroeste 0 920.1 2.6 81
2019-05-03 20:00:00 16.4 15 Norte 53 Norte 0 919.1 1.2 66
2019-05-03 19:00:00 23.8 16 Noroeste 41 Noroeste 0 917.7 -0.7 27
2019-05-03 18:00:00 23.8 24 Noroeste 38 Oeste 0 917.5 -1.4 27
2019-05-03 17:00:00 24.4 23 Noroeste 45 Noroeste 0 917.9 -1.8 31
2019-05-03 16:00:00 24.9 21 Noroeste 36 Noroeste 0 918.4 -2.1 29
2019-05-03 15:00:00 23.6 14 Noroeste 28 Noroeste 0 918.9 -2.3 31
2019-05-03 14:00:00 22.8 13 Noroeste 23 Noroeste 0 919.7 -2 33
2019-05-03 13:00:00 20.1 6 Noroeste 16 Norte 0 920.5 -1.6 32
2019-05-03 12:00:00 17.4 4 Sur 11 Norte 0 921.2 -1.1 34
2019-05-03 11:00:00 13.7 3 Noroeste 8 Noroeste 0 921.7 -0.6 46
2019-05-03 10:00:00 11.1 4 Noroeste 6 Norte 0 922.1 -0.1 57
2019-05-03 09:00:00 8.4 3 Oeste 7 Oeste 0 922.3 -0.2 72
2019-05-03 08:00:00 5.9 4 Oeste 9 Sudeste 0 922.3 -0.6 82
2019-05-03 07:00:00 5.5 7 Sudeste 9 Sudeste 0 922.2 -0.9 83
2019-05-03 06:00:00 6.2 5 Sudoeste 9 Sudeste 0 922.5 -1.1 79
2019-05-03 05:00:00 6.8 3 Sudeste 7 Este 0 922.9 -1.1 78
2019-05-03 04:00:00 7.7 5 Este 9 Sudeste 0 923.1 -1 73
2019-05-03 03:00:00 8.6 9 Sudeste 12 Sudeste 0 923.6 -0.6 68
2019-05-03 02:00:00 9.6 7 Sudeste 10 Sudeste 0 924 0 64
2019-05-03 01:00:00 10.6 8 Sudeste 13 Sudeste 0 924.1 0.6 62
2019-05-03 00:00:00 11.5 6 Sudeste 12 Sudeste 0 924.2 1.3 60
2019-05-02 23:00:00 12.8 8 Sudeste 15 Sur 0 924 1.5 53
2019-05-02 22:00:00 14.2 10 Sudeste 27 Sudeste 0 923.5 1.6 49
2019-05-02 21:00:00 15.6 13 Sudeste 34 Sudeste 0 922.9 1.5 46
2019-05-02 20:00:00 17.9 19 Sudeste 44 Sudeste 0 922.5 1.1 43
2019-05-02 19:00:00 20.4 25 Sudeste 43 Sudeste 0 921.9 -0.4 40
2019-05-02 18:00:00 23 16 Sudeste 32 Sudeste 0 921.4 -1 30
2019-05-02 17:00:00 25.8 17 Sudeste 31 Sur 0 921.4 -1.7 26
2019-05-02 16:00:00 25.6 18 Sudeste 35 Sudeste 0 922.3 -1.3 25
2019-05-02 15:00:00 24.9 14 Sudeste 29 Este 0 922.4 -1.4 25
2019-05-02 14:00:00 24.9 15 Sudeste 29 Sudeste 0 923.1 -0.5 27
2019-05-02 13:00:00 22.8 15 Sudeste 31 Sudeste 0 923.6 0.1 31
2019-05-02 12:00:00 21.7 16 Sudeste 30 Sudeste 0 923.8 0.4 37
2019-05-02 11:00:00 19.6 17 Sudeste 28 Sudeste 0 923.6 0.1 42
2019-05-02 10:00:00 16.1 10 Sudeste 18 Sudeste 0 923.5 0.3 55
2019-05-02 09:00:00 10.6 8 Sudeste 12 Sudeste 0 923.4 0.4 83
2019-05-02 08:00:00 8 10 Sudeste 14 Sudeste 0 923.5 0.6 91
2019-05-02 07:00:00 8.3 5 Sudeste 7 Sudeste 0 923.2 0.2 89
2019-05-02 06:00:00 8.6 5 Sur 13 Sudeste 0 923 -0.3 89
2019-05-02 05:00:00 9.5 5 Sur 10 Sur 0 922.9 -0.8 87
2019-05-02 04:00:00 10.5 4 Sudoeste 11 Sudeste 0 923 -1 81
2019-05-02 03:00:00 11.4 6 Este 15 Este 0 923.3 -1.2 78
2019-05-02 02:00:00 12.9 11 Sudeste 28 Sudeste 0 923.7 -1.1 70
2019-05-02 01:00:00 13.9 12 Sudeste 24 Sudeste 0 924 0.3 68
2019-05-02 00:00:00 14.9 8 Sudeste 16 Sur 0 924.5 2.1 66
2019-05-01 23:00:00 15.7 5 Sudeste 21 Sudoeste 0 924.8 2.8 65
2019-05-01 22:00:00 17.1 6 Sur 21 Sudeste 0 923.7 2.3 57
2019-05-01 21:00:00 18.4 12 Sudeste 21 Este 0 922.4 1.1 44
2019-05-01 20:00:00 20 9 Sur 31 Sudeste 0 922 0.6 42
2019-05-01 19:00:00 21.6 17 Sudeste 33 Sudeste 0 921.4 -0.7 38
2019-05-01 18:00:00 23.9 20 Sudeste 36 Sudeste 0 921.3 -1.3 34
2019-05-01 17:00:00 26.3 23 Sudeste 37 Sudeste 0 921.4 -1.8 31
2019-05-01 16:00:00 27.2 19 Sudeste 35 Sudeste 0 922.1 -2 30
2019-05-01 15:00:00 25.3 23 Sudeste 37 Sudeste 0 922.6 -1.9 32
2019-05-01 14:00:00 24.7 10 Sur 22 Sur 0 923.2 -1.5 40
2019-05-01 13:00:00 22.3 13 Sur 22 Sudeste 0 924.1 -0.7 45
2019-05-01 12:00:00 20.6 8 Sudeste 21 Sudeste 0 924.5 -0.3 54
2019-05-01 11:00:00 15.8 4 Norte 8 Norte 0 924.7 0.2 76
2019-05-01 10:00:00 12.6 3 Norte 7 Norte 0 924.8 0.6 90
2019-05-01 09:00:00 10.4 3 Noroeste 5 Noroeste 0 924.8 0.5 97
2019-05-01 08:00:00 8.7 3 Sur 7 Este 0 924.5 0.1 97
2019-05-01 07:00:00 8.6 5 Sur 8 Sudeste 0 924.2 -0.5 96
2019-05-01 06:00:00 8.8 6 Sur 10 Sudeste 0 924.3 -0.9 96
2019-05-01 05:00:00 9.8 4 Sudoeste 6 Sur 0 924.4 -1.3 94
2019-05-01 04:00:00 10.3 4 Sur 9 Sudeste 0 924.7 -1 93
2019-05-01 03:00:00 11 6 Este 11 Sur 0 925.2 -0.7 91
2019-05-01 02:00:00 11.8 8 Sur 15 Sudeste 0 925.7 -0.4 89
2019-05-01 01:00:00 12.4 9 Sudeste 24 Sudeste 0 925.7 0.1 86
2019-05-01 00:00:00 13.3 14 Sudeste 30 Sudeste 0 925.9 0.9 83
2019-04-30 23:00:00 14.5 13 Sur 24 Sudeste 0 926.1 1.7 77
2019-04-30 22:00:00 15.7 10 Sudeste 30 Sudeste 0 925.6 1.4 72
2019-04-30 21:00:00 17.6 17 Sudeste 33 Sudeste 0 925 1 63
2019-04-30 20:00:00 22.1 19 Sudeste 31 Sudeste 0 924.4 -0.2 49
2019-04-30 19:00:00 24.8 15 Sudeste 32 Sudeste 0 924.2 -0.9 38
2019-04-30 18:00:00 27.2 14 Oeste 24 Oeste 0 924 -1.5 19
2019-04-30 17:00:00 26.7 12 Oeste 27 Noroeste 0 924.6 -1.5 22
2019-04-30 16:00:00 26.3 12 Oeste 27 Oeste 0 925.1 -1.6 22
2019-04-30 15:00:00 25.6 9 Sudoeste 22 Oeste 0 925.5 -1.6 24
2019-04-30 14:00:00 24.8 9 Oeste 22 Oeste 0 926.1 -1.3 24
2019-04-30 13:00:00 22.7 9 Noroeste 20 Oeste 0 926.7 -0.9 33
2019-04-30 12:00:00 18.6 4 Norte 10 Norte 0 927.1 -0.5 49
2019-04-30 11:00:00 14.9 5 Noroeste 9 Noroeste 0 927.4 0 59
2019-04-30 10:00:00 11.2 3 Noroeste 7 Norte 0 927.6 0.6 76
2019-04-30 09:00:00 8.1 0 Calma 4 Sudeste 0 927.6 0.7 96
2019-04-30 08:00:00 6.1 2 Sudoeste 5 Sudeste 0 927.4 0.4 95
2019-04-30 07:00:00 6.2 6 Sudeste 10 Sudeste 0 927 -0.3 94
2019-04-30 06:00:00 7 6 Sudeste 7 Sur 0 926.9 -0.7 91
2019-04-30 05:00:00 7.6 6 Sur 8 Sudeste 0 927 -1 89
2019-04-30 04:00:00 8.2 6 Sur 10 Sudeste 0 927.3 -0.6 85
2019-04-30 03:00:00 10.1 9 Sudeste 16 Sudeste 0 927.6 -0.2 74
2019-04-30 02:00:00 10.6 8 Este 14 Este 0 928 0.3 73
2019-04-30 01:00:00 11.8 9 Este 17 Sudeste 0 927.9 0.9 67
2019-04-30 00:00:00 12.2 10 Sudeste 15 Sudeste 0 927.8 1.5 62
2019-04-29 23:00:00 13.3 9 Sudeste 20 Sudeste 0 927.7 1.9 54
2019-04-29 22:00:00 14.5 11 Sudeste 30 Sudeste 0 927 1.2 49
2019-04-29 21:00:00 16.8 15 Sudeste 32 Sudeste 0 926.3 0.5 47
2019-04-29 20:00:00 20.3 20 Sudeste 30 Sudeste 0 925.8 -0.2 33
2019-04-29 19:00:00 22.3 19 Sudeste 31 Sudeste 0 925.8 -0.4 29
2019-04-29 18:00:00 24.4 19 Sudeste 31 Sudeste 0 925.8 -0.8 26
2019-04-29 17:00:00 24 17 Sudeste 27 Sudeste 0 926 -1.3 25
2019-04-29 16:00:00 24.6 14 Sudeste 28 Sudeste 0 926.2 -1.7 26
2019-04-29 15:00:00 24.5 15 Sudeste 26 Sudeste 0 926.6 -1.8 25
2019-04-29 14:00:00 23.3 16 Sudeste 30 Sudeste 0 927.3 -1.4 27
2019-04-29 13:00:00 21.7 18 Sudeste 31 Sudeste 0 927.9 -1.1 26
2019-04-29 12:00:00 19.2 9 Este 19 Sudeste 0 928.4 -0.8 36
2019-04-29 11:00:00 14.5 5 Noroeste 9 Noroeste 0 928.7 -0.4 56
2019-04-29 10:00:00 11.9 5 Norte 9 Norte 0 929 0.1 69
2019-04-29 09:00:00 8.3 2 Nordeste 8 Sur 0 929.2 0.5 87
2019-04-29 08:00:00 5.6 7 Sur 10 Sudeste 0 929.1 0 94
2019-04-29 07:00:00 6 3 Sudoeste 8 Sudeste 0 928.9 -0.4 89
2019-04-29 06:00:00 6.6 6 Sudeste 8 Sudeste 0 928.7 -1.1 86
2019-04-29 05:00:00 7.3 3 Este 10 Sudeste 0 929.1 -0.9 81
2019-04-29 04:00:00 8.2 7 Sudeste 15 Sur 0 929.3 -0.8 75
2019-04-29 03:00:00 9.2 9 Sur 13 Sudeste 0 929.8 -0.3 69
2019-04-29 02:00:00 10 7 Sudeste 18 Este 0 930 0 62
2019-04-29 01:00:00 11.1 12 Este 18 Este 0 930.1 0.7 57
2019-04-29 00:00:00 12.7 4 Este 23 Sudeste 0 930.1 1.2 52
2019-04-28 23:00:00 14 12 Sur 21 Sur 0 930 1.5 46
2019-04-28 22:00:00 15.2 12 Sudeste 21 Sudeste 0 929.4 1 42
2019-04-28 21:00:00 17.7 13 Sudeste 28 Sudeste 0 928.9 0.4 34
2019-04-28 20:00:00 20.6 17 Sudeste 33 Sudeste 0 928.5 -0.4 30
2019-04-28 19:00:00 22.2 19 Sudeste 32 Sudeste 0 928.4 -1.1 26
2019-04-28 18:00:00 23.9 18 Sudeste 32 Sudeste 0 928.5 -1.5 24
2019-04-28 17:00:00 24.3 18 Sudeste 32 Sudeste 0 928.9 -1.6 23
2019-04-28 16:00:00 25 14 Sudeste 28 Sudeste 0 929.5 -1.8 23
2019-04-28 15:00:00 24.7 13 Sudeste 28 Este 0 930 -1.6 24
2019-04-28 14:00:00 23.7 17 Sudeste 30 Sudeste 0 930.5 -1.6 23
2019-04-28 13:00:00 22.4 20 Sudeste 37 Sudeste 0 931.3 -1.2 28
2019-04-28 12:00:00 19 7 Nordeste 14 Nordeste 0 931.6 -1.2 40
2019-04-28 11:00:00 14.8 3 Nordeste 8 Oeste 0 932.1 -0.5 51
2019-04-28 10:00:00 10.1 4 Oeste 9 Norte 0 932.5 0 73
2019-04-28 09:00:00 7.7 5 Norte 9 Norte 0 932.8 0.1 86
2019-04-28 08:00:00 4.9 8 Sur 12 Sudeste 0 932.6 -0.2 94
2019-04-28 07:00:00 4.8 6 Sudeste 9 Sur 0 932.5 -0.7 92
2019-04-28 06:00:00 5.4 4 Sudeste 8 Sudoeste 0 932.7 -1.1 90
2019-04-28 05:00:00 5.6 5 Sudeste 7 Este 0 932.8 -1.4 90
2019-04-28 04:00:00 6.5 5 Este 7 Sur 0 933.2 -1.1 86
2019-04-28 03:00:00 7.7 6 Sudeste 10 Sudeste 0 933.8 -0.6 80
2019-04-28 02:00:00 9 8 Sudeste 13 Sudeste 0 934.2 0 73
2019-04-28 01:00:00 10.1 6 Este 8 Sudeste 0 934.3 0.9 68
2019-04-28 00:00:00 11.7 5 Sudeste 18 Sudeste 0 934.4 1.7 58
2019-04-27 23:00:00 12.7 10 Sur 23 Sudeste 0 934.2 2 57
2019-04-27 22:00:00 13.9 15 Sudeste 29 Sudeste 0 933.4 1.2 52
2019-04-27 21:00:00 16.4 17 Sudeste 31 Sudeste 0 932.7 0.7 43
2019-04-27 20:00:00 19.8 16 Sudeste 30 Sur 0 932.2 -0.2 33
2019-04-27 19:00:00 21.9 18 Sudeste 30 Sudeste 0 932.2 -0.8 30
2019-04-27 18:00:00 23.8 18 Sudeste 31 Este 0 932 -1.7 26
2019-04-27 17:00:00 24.8 11 Sudeste 28 Sudeste 0 932.4 -1.9 26
2019-04-27 16:00:00 23 7 Norte 22 Nordeste 0 933 -1.9 26
2019-04-27 15:00:00 22.6 7 Nordeste 18 Sudeste 0 933.7 -1.4 32
2019-04-27 14:00:00 21.1 4 Nordeste 21 Norte 0 934.3 -0.8 35
2019-04-27 13:00:00 18.6 5 Noroeste 18 Norte 0 934.9 -0.4 41
2019-04-27 12:00:00 16.2 11 Norte 15 Norte 0 935.1 -0.2 48
2019-04-27 11:00:00 12.4 6 Norte 10 Norte 0 935.1 0 67
2019-04-27 10:00:00 8.5 3 Norte 8 Norte 0 935.3 0.8 81
2019-04-27 09:00:00 5.2 2 Oeste 6 Sudeste 0 935.3 1.1 97
2019-04-27 08:00:00 2.9 4 Sudeste 9 Sur 0 935.1 1 96
2019-04-27 07:00:00 3.1 5 Sudeste 8 Sur 0 934.5 0.4 94
2019-04-27 06:00:00 3.4 5 Sur 6 Sur 0 934.2 -0.3 92
2019-04-27 05:00:00 4.4 3 Sudeste 9 Norte 0 934.1 -0.8 90
2019-04-27 04:00:00 5.1 7 Sur 12 Sudeste 0 934.1 -0.7 89
2019-04-27 03:00:00 5.8 8 Sudeste 10 Sudeste 0 934.5 -0.2 85
2019-04-27 02:00:00 7.3 4 Sur 9 Sudeste 0 934.9 0.5 78
2019-04-27 01:00:00 8.2 7 Sudeste 13 Sudeste 0 934.8 1.4 69
2019-04-27 00:00:00 10.6 8 Sur 19 Oeste 0 934.7 1.9 57
2019-04-26 23:00:00 12.5 7 Sudoeste 22 Sur 0 934.4 2 47
2019-04-26 22:00:00 13.4 11 Sudoeste 18 Oeste 0 933.4 1.2 42
2019-04-26 21:00:00 15.2 10 Oeste 29 Oeste 0 932.8 1 35
2019-04-26 20:00:00 17.1 21 Oeste 30 Oeste 0 932.4 0.5 32
2019-04-26 19:00:00 18 18 Oeste 32 Oeste 0 932.2 0 32
2019-04-26 18:00:00 18.9 19 Oeste 31 Oeste 0 931.8 -0.6 27
2019-04-26 17:00:00 19 17 Oeste 31 Oeste 0 931.9 -0.8 25
2019-04-26 16:00:00 18.6 18 Oeste 29 Noroeste 0 932.2 -0.9 24
2019-04-26 15:00:00 18 16 Oeste 27 Oeste 0 932.4 -1 25
2019-04-26 14:00:00 17.3 12 Noroeste 19 Oeste 0 932.7 -0.6 28
2019-04-26 13:00:00 15.5 11 Noroeste 23 Noroeste 0 933.1 -0.2 34
2019-04-26 12:00:00 13.8 15 Noroeste 24 Noroeste 0 933.4 0.8 45
2019-04-26 11:00:00 11.2 8 Oeste 20 Oeste 0 933.3 1.1 56
2019-04-26 10:00:00 9.7 15 Oeste 22 Oeste 0 933.3 1.7 66
2019-04-26 09:00:00 8.1 9 Sudoeste 17 Oeste 0 932.6 1.3 71
2019-04-26 08:00:00 5.9 5 Sur 12 Oeste 0 932.2 1.2 80
2019-04-26 07:00:00 6.1 3 Noroeste 8 Sur 0 931.6 0.7 81
2019-04-26 06:00:00 6.6 5 Sudeste 21 Oeste 0 931.3 0.4 81
2019-04-26 05:00:00 8.6 16 Oeste 27 Noroeste 0 931 0.1 72
2019-04-26 04:00:00 9.2 16 Noroeste 24 Oeste 0 930.9 0.6 72
2019-04-26 03:00:00 9.4 6 Noroeste 17 Oeste 0 930.9 1 74
2019-04-26 02:00:00 9.5 5 Noroeste 32 Oeste 0 930.9 2.2 74
2019-04-26 01:00:00 10.3 21 Oeste 36 Oeste 0 930.3 2.8 72
2019-04-26 00:00:00 10.8 10 Noroeste 17 Noroeste 0 929.9 3.1 70
2019-04-25 23:00:00 11.7 9 Noroeste 31 Oeste 0 928.7 2.5 65
2019-04-25 22:00:00 12 14 Oeste 24 Oeste 0 927.5 1.7 60
2019-04-25 21:00:00 12.5 11 Noroeste 44 Oeste 0 926.8 1.5 60
2019-04-25 20:00:00 14.7 25 Oeste 49 Oeste 0 926.2 1.4 45
2019-04-25 19:00:00 15.7 24 Oeste 53 Oeste 0 925.8 0.8 49
2019-04-25 18:00:00 16.9 27 Oeste 54 Oeste 0 925.3 -0.3 49
2019-04-25 17:00:00 16.5 31 Oeste 49 Oeste 0 924.8 -0.7 51
2019-04-25 16:00:00 15.4 26 Oeste 42 Oeste 0 925 -0.6 56
2019-04-25 15:00:00 12.1 15 Noroeste 25 Noroeste 0 925.6 1.5 71
2019-04-25 14:00:00 10.8 6 Norte 22 Oeste 0 925.5 2.5 87
2019-04-25 13:00:00 11 13 Oeste 46 Oeste 0.2 925.6 2.9 90
2019-04-25 12:00:00 14.5 22 Oeste 41 Oeste 0 924.1 1.9 72
2019-04-25 11:00:00 14.1 13 Noroeste 37 Noroeste 0 923 1.2 73
2019-04-25 10:00:00 13.3 6 Nordeste 15 Este 0 922.7 1.1 73
2019-04-25 09:00:00 12.4 3 Sur 10 Oeste 0 922.2 0.6 72
2019-04-25 08:00:00 11.6 4 Sudoeste 25 Oeste 0 921.8 -0.1 71
2019-04-25 07:00:00 12.1 12 Oeste 22 Sudoeste 0 921.6 -0.5 69
2019-04-25 06:00:00 11.8 7 Oeste 29 Sudoeste 0 921.6 -0.9 70
2019-04-25 05:00:00 10.7 2 Este 13 Oeste 0 921.9 -0.8 72
2019-04-25 04:00:00 11.5 5 Oeste 20 Noroeste 0 922.1 -0.7 66
2019-04-25 03:00:00 11.8 12 Noroeste 21 Noroeste 0 922.5 -0.6 62
2019-04-25 02:00:00 11.8 10 Sudoeste 28 Sudoeste 0 922.7 -0.3 60
2019-04-25 01:00:00 10.9 11 Norte 27 Noroeste 0 922.8 0.1 64
2019-04-25 00:00:00 11.8 15 Oeste 28 Oeste 0 923.1 1.2 59
2019-04-24 23:00:00 11.7 10 Oeste 22 Oeste 0 923 1.6 61
2019-04-24 22:00:00 12.1 7 Oeste 36 Oeste 0 922.7 1.7 61
2019-04-24 21:00:00 13.2 22 Oeste 46 Oeste 0 921.9 1.5 57
2019-04-24 20:00:00 14.8 24 Oeste 40 Oeste 0 921.4 0.8 50
2019-04-24 19:00:00 16.5 21 Oeste 48 Oeste 0 921 0.5 48
2019-04-24 18:00:00 17.4 28 Oeste 49 Sudoeste 0 920.4 -0.1 44
2019-04-24 17:00:00 18.1 27 Oeste 45 Oeste 0 920.6 0.2 40
2019-04-24 16:00:00 18.2 26 Oeste 42 Oeste 0 920.5 -0.4 37
2019-04-24 15:00:00 17.7 24 Oeste 42 Oeste 0 920.5 -0.9 38
2019-04-24 14:00:00 16.5 25 Oeste 51 Oeste 0 920.4 -0.7 41
2019-04-24 13:00:00 15.1 29 Oeste 42 Oeste 0 920.9 0.2 42
2019-04-24 12:00:00 13.4 20 Oeste 42 Oeste 0 921.4 1.2 49
2019-04-24 11:00:00 11.3 24 Oeste 42 Oeste 0 921.1 1.7 51
2019-04-24 10:00:00 8.8 8 Noroeste 19 Noroeste 0 920.7 2.2 67
2019-04-24 09:00:00 7 6 Noroeste 17 Sudoeste 0 920.2 1.7 74
2019-04-24 08:00:00 5.1 4 Sur 9 Sudoeste 0 919.4 1.2 81
2019-04-24 07:00:00 4.4 2 Oeste 9 Este 0 918.5 0.5 87
2019-04-24 06:00:00 4.4 5 Este 12 Sur 0 918.5 0.7 85
2019-04-24 05:00:00 4.5 5 Nordeste 12 Nordeste 0 918.2 0.7 84
2019-04-24 04:00:00 5.1 4 Noroeste 12 Nordeste 0 918 0.5 79
2019-04-24 03:00:00 4.7 6 Nordeste 10 Nordeste 0 917.8 0.7 83
2019-04-24 02:00:00 5.8 5 Norte 16 Oeste 0 917.5 0.8 74
2019-04-24 01:00:00 6.5 4 Sudoeste 29 Oeste 0 917.5 1.6 72
2019-04-24 00:00:00 7.2 11 Oeste 22 Oeste 0 917.1 2.5 71
2019-04-23 23:00:00 7.1 8 Oeste 33 Oeste 0 916.7 2.6 71
2019-04-23 22:00:00 7.6 14 Oeste 34 Oeste 0 915.9 3 69
2019-04-23 21:00:00 8.9 17 Oeste 41 Oeste 0 914.6 2.1 59
2019-04-23 20:00:00 10.7 16 Noroeste 51 Oeste 0 914.1 1.5 56
2019-04-23 19:00:00 12.2 21 Oeste 34 Sudoeste 0 912.9 0.2 46
2019-04-23 18:00:00 14.1 19 Sudoeste 37 Sudoeste 0 912.5 -0.2 38
2019-04-23 17:00:00 13.9 19 Oeste 37 Oeste 0 912.6 -0.6 39
2019-04-23 16:00:00 11.5 19 Oeste 40 Oeste 0 912.7 -0.3 61
2019-04-23 15:00:00 8.6 5 Norte 33 Oeste 0.2 912.7 0.2 81
2019-04-23 14:00:00 9.1 23 Oeste 36 Oeste 0 913.2 1.7 84
2019-04-23 13:00:00 10.1 27 Oeste 40 Oeste 0.2 913 1.9 72
2019-04-23 12:00:00 9.3 22 Oeste 45 Oeste 0 912.5 1.7 81
2019-04-23 11:00:00 10.8 5 Sudeste 9 Sudeste 0 911.5 0.6 76
2019-04-23 10:00:00 9.9 3 Este 11 Sudeste 0 911.1 0 81
2019-04-23 09:00:00 8.9 3 Sur 8 Sudeste 0 910.8 -0.6 83
2019-04-23 08:00:00 9 5 Noroeste 11 Oeste 0 910.9 -0.7 77
2019-04-23 07:00:00 8 4 Sudoeste 8 Sudoeste 0 911.1 -0.6 83
2019-04-23 06:00:00 8.9 4 Este 21 Noroeste 0 911.4 -1.2 77
2019-04-23 05:00:00 9.9 9 Noroeste 17 Norte 0 911.6 -1.6 70
2019-04-23 04:00:00 10.6 13 Norte 21 Oeste 0 911.7 -1.5 65
2019-04-23 03:00:00 10.9 14 Noroeste 25 Oeste 0 912.6 -0.9 63
2019-04-23 02:00:00 12.4 18 Oeste 35 Sudoeste 0 913.2 -0.1 53
2019-04-23 01:00:00 12.7 21 Oeste 35 Oeste 0 913.2 -0.2 58
2019-04-23 00:00:00 11.1 12 Oeste 19 Oeste 0 913.5 0.5 69